Decoded Metar for UUOO (VORONEZH in RUSSIA) (IATA:VOZ) | Meteo·Mobile Aviation Weather
aviador You're here:

UUOO Decoded Metar

VORONEZH in RUSSIA
Report Time2018-08-16 00:30:00
UTC Time2018-08-16 00:47:07
Flight Rules vfr VFR
Wind190° at 6 kt
W.Decomp.*RWY 12: 2.7 kt HW 5.3 kt RCW
W.Rank190° ranks 35
Current wind is below 190° avg. (7.9)
Visibility9999 m
Phenomena:N/A
Clouds:N/A
Expected CloudBase > 5,600 ft AGL from Temp-Dew spread
CeilingNone
Temp23°C (ISA +9)
Dew Point09°C (41% RH)
AAT20.6°C
QNH1015 hPa
Density Alt1,654 ft
Elevation515 ft
Report Wrong Elevation
Raw Report
UUOO 160030Z 19003MPS CAVOK 23/09 Q1015 R12/090070 NOSIG RMK
QFE747=

Extra information for UUOO:More info

Metar Taf Metar & Taf Last 4 Metars F.Rules Stats Wind Profile Meteogram Temp Stats Airport Information Weather charts Add Link Nearby VenuesMetar ALERT Operation Metar Decoded Social comments